createdAt,value
2022-12-19T00:01:59.367Z,4.37
2022-12-19T00:04:27.245Z,4.72
2022-12-19T00:06:54.986Z,5.70
2022-12-19T00:09:22.716Z,3.97
2022-12-19T00:11:50.590Z,5.07
2022-12-19T00:14:18.461Z,5.55
2022-12-19T00:16:46.205Z,5.45
2022-12-19T00:19:14.233Z,6.23
2022-12-19T00:21:41.894Z,5.30
2022-12-19T00:24:21.305Z,6.80
2022-12-19T00:26:50.131Z,5.70
2022-12-19T00:29:17.997Z,5.78
2022-12-19T00:31:46.054Z,6.03
2022-12-19T00:34:13.871Z,6.57
2022-12-19T00:36:41.586Z,5.20
2022-12-19T00:39:10.663Z,5.50
2022-12-19T00:41:41.392Z,6.32
2022-12-19T00:44:16.150Z,6.30
2022-12-19T00:46:49.261Z,5.05
2022-12-19T00:49:20.998Z,5.20
2022-12-19T00:51:48.772Z,6.20
2022-12-19T00:54:16.507Z,5.15
2022-12-19T00:56:44.808Z,6.72
2022-12-19T00:59:12.512Z,4.63
2022-12-19T01:01:41.810Z,6.13
2022-12-19T01:04:28.628Z,7.60
2022-12-19T01:07:01.749Z,4.90
2022-12-19T01:09:31.969Z,5.87
2022-12-19T01:12:18.517Z,5.30
2022-12-19T01:14:46.269Z,5.88
2022-12-19T01:17:13.958Z,7.07
2022-12-19T01:19:44.343Z,5.82
2022-12-19T01:22:13.212Z,5.60
2022-12-19T01:24:41.596Z,5.80
2022-12-19T01:27:09.301Z,4.85
2022-12-19T01:29:51.157Z,4.20
2022-12-19T01:32:19.753Z,5.22
2022-12-19T01:34:47.604Z,4.30
2022-12-19T01:37:15.290Z,5.95
2022-12-19T01:39:43.040Z,4.85
2022-12-19T01:42:23.173Z,4.43
2022-12-19T01:45:03.325Z,4.85
2022-12-19T01:47:31.283Z,4.60
2022-12-19T01:49:58.975Z,4.93
2022-12-19T01:52:26.754Z,5.75
2022-12-19T01:54:54.453Z,4.90
2022-12-19T01:57:22.232Z,4.15
2022-12-19T01:59:51.174Z,4.70
2022-12-19T02:02:20.786Z,5.70
2022-12-19T02:04:48.664Z,5.55
2022-12-19T02:07:17.026Z,5.37
2022-12-19T02:09:45.878Z,4.82
2022-12-19T02:12:13.652Z,5.07
2022-12-19T02:14:41.894Z,6.87
2022-12-19T02:17:09.674Z,4.43
2022-12-19T02:19:40.217Z,4.22
2022-12-19T02:22:13.686Z,5.50
2022-12-19T02:25:13.197Z,4.70
2022-12-19T02:27:43.648Z,4.47
2022-12-19T02:30:18.712Z,4.28
2022-12-19T02:32:55.531Z,5.30
2022-12-19T02:35:34.481Z,4.15
2022-12-19T02:38:08.432Z,4.93
2022-12-19T02:40:42.440Z,4.57
2022-12-19T02:43:10.189Z,5.60
2022-12-19T02:45:38.456Z,5.47
2022-12-19T02:48:08.956Z,4.43
2022-12-19T02:50:37.937Z,5.50
2022-12-19T02:53:05.757Z,4.85
2022-12-19T02:55:35.193Z,4.03
2022-12-19T02:58:15.803Z,5.63
2022-12-19T03:00:51.860Z,6.47
2022-12-19T03:03:23.568Z,5.97
2022-12-19T03:05:51.316Z,5.30
2022-12-19T03:08:25.976Z,4.38
2022-12-19T03:10:59.158Z,5.93
2022-12-19T03:13:26.929Z,6.30
2022-12-19T03:15:54.586Z,5.80
2022-12-19T03:18:22.375Z,5.47
2022-12-19T03:20:52.827Z,4.47
2022-12-19T03:23:20.734Z,7.30
2022-12-19T03:25:49.797Z,6.03
2022-12-19T03:28:20.470Z,4.43
2022-12-19T03:30:48.297Z,6.03
2022-12-19T03:33:16.015Z,6.93
2022-12-19T03:35:43.823Z,5.82
2022-12-19T03:38:11.530Z,6.35
2022-12-19T03:40:39.311Z,5.13
2022-12-19T03:43:11.322Z,5.75
2022-12-19T03:45:44.955Z,8.57
2022-12-19T03:48:17.374Z,6.40
2022-12-19T03:50:54.426Z,7.38
2022-12-19T03:53:27.534Z,6.82
2022-12-19T03:55:56.668Z,5.63
2022-12-19T03:58:28.947Z,7.35
2022-12-19T04:00:56.715Z,6.70
2022-12-19T04:03:24.479Z,5.28
2022-12-19T04:05:53.894Z,5.67
2022-12-19T04:08:21.620Z,6.07
2022-12-19T04:10:50.904Z,5.40
2022-12-19T04:13:19.681Z,7.07
2022-12-19T04:15:51.460Z,6.38
2022-12-19T04:18:19.584Z,7.13
2022-12-19T04:20:50.292Z,4.93
2022-12-19T04:23:19.455Z,6.63
2022-12-19T04:25:49.256Z,6.28
2022-12-19T04:28:21.624Z,6.28
2022-12-19T04:30:49.469Z,5.60
2022-12-19T04:33:17.294Z,6.13
2022-12-19T04:35:45.042Z,6.90
2022-12-19T04:38:12.852Z,6.63
2022-12-19T04:40:41.748Z,6.35
2022-12-19T04:43:09.906Z,6.95
2022-12-19T04:45:37.934Z,5.77
2022-12-19T04:48:05.812Z,6.38
2022-12-19T04:50:35.904Z,6.43
2022-12-19T04:53:04.122Z,7.35
2022-12-19T04:55:31.907Z,5.83
2022-12-19T04:57:59.751Z,8.50
2022-12-19T05:00:27.505Z,7.40
2022-12-19T05:02:55.384Z,6.20
2022-12-19T05:05:23.318Z,7.47
2022-12-19T05:07:51.806Z,7.35
2022-12-19T05:10:19.478Z,7.60
2022-12-19T05:12:47.209Z,6.82
2022-12-19T05:15:14.873Z,7.10
2022-12-19T05:17:42.665Z,7.32
2022-12-19T05:20:10.933Z,7.87
2022-12-19T05:22:38.723Z,7.47
2022-12-19T05:25:06.742Z,6.63
2022-12-19T05:27:34.507Z,6.97
2022-12-19T05:30:02.408Z,5.57
2022-12-19T05:32:34.865Z,8.00
2022-12-19T05:35:02.673Z,5.93
2022-12-19T05:37:31.840Z,5.78
2022-12-19T05:39:59.604Z,6.30
2022-12-19T05:42:27.398Z,6.88
2022-12-19T05:44:55.417Z,7.33
2022-12-19T05:47:23.208Z,7.63
2022-12-19T05:49:50.907Z,5.57
2022-12-19T05:52:18.639Z,7.60
2022-12-19T05:54:46.369Z,7.30
2022-12-19T05:57:14.130Z,5.50
2022-12-19T05:59:41.791Z,7.37
2022-12-19T06:02:09.632Z,6.43
2022-12-19T06:04:40.423Z,6.88
2022-12-19T06:07:08.250Z,5.60
2022-12-19T06:09:35.996Z,7.87
2022-12-19T06:12:03.790Z,5.72
2022-12-19T06:14:32.152Z,5.47
2022-12-19T06:16:59.809Z,5.30
2022-12-19T06:19:27.680Z,5.70
2022-12-19T06:21:55.325Z,4.97
2022-12-19T06:24:25.036Z,5.43
2022-12-19T06:26:52.692Z,5.50
2022-12-19T06:29:20.492Z,7.35
2022-12-19T06:31:48.224Z,5.82
2022-12-19T06:34:39.418Z,6.53
2022-12-19T06:37:07.981Z,5.07
2022-12-19T06:39:36.288Z,4.70
2022-12-19T06:42:22.742Z,6.00
2022-12-19T06:44:54.113Z,4.00
2022-12-19T06:47:22.784Z,4.93
2022-12-19T06:49:50.578Z,5.13
2022-12-19T06:52:18.378Z,3.50
2022-12-19T06:54:46.154Z,4.90
2022-12-19T06:57:13.929Z,4.03
2022-12-19T06:59:41.625Z,4.30
2022-12-19T07:02:09.546Z,2.58
2022-12-19T07:04:38.595Z,3.63
2022-12-19T07:07:06.522Z,4.63
2022-12-19T07:09:34.450Z,3.90
2022-12-19T07:12:03.233Z,4.57
2022-12-19T07:14:30.981Z,4.47
2022-12-19T07:16:59.072Z,5.15
2022-12-19T07:19:26.815Z,5.10
2022-12-19T07:21:55.118Z,3.38
2022-12-19T07:24:22.951Z,3.57
2022-12-19T07:26:50.674Z,2.38
2022-12-19T07:29:18.452Z,2.97
2022-12-19T07:31:46.165Z,3.53
2022-12-19T07:34:13.941Z,4.47
2022-12-19T07:36:41.606Z,3.30
2022-12-19T07:39:09.713Z,3.30
2022-12-19T07:41:38.363Z,2.65
2022-12-19T07:44:06.780Z,2.80
2022-12-19T07:46:34.569Z,2.75
2022-12-19T07:49:02.343Z,2.30
2022-12-19T07:51:30.081Z,3.13
2022-12-19T07:53:58.705Z,3.03
2022-12-19T07:56:27.625Z,3.37
2022-12-19T07:58:55.561Z,2.72
2022-12-19T08:01:23.437Z,3.92
2022-12-19T08:03:51.329Z,2.80
2022-12-19T08:06:19.156Z,2.33
2022-12-19T08:08:46.962Z,3.65
2022-12-19T08:11:19.626Z,2.67
2022-12-19T08:13:47.417Z,2.70
2022-12-19T08:16:15.679Z,2.13
2022-12-19T08:18:43.596Z,3.05
2022-12-19T08:21:11.350Z,2.07
2022-12-19T08:23:39.276Z,2.60
2022-12-19T08:26:13.645Z,2.97
2022-12-19T08:28:41.490Z,3.67
2022-12-19T08:31:09.869Z,2.40
2022-12-19T08:33:37.672Z,2.80
2022-12-19T08:36:11.225Z,1.95
2022-12-19T08:38:39.891Z,2.80
2022-12-19T08:41:07.720Z,2.22
2022-12-19T08:43:35.694Z,3.25
2022-12-19T08:46:03.592Z,2.37
2022-12-19T08:48:32.318Z,2.58
2022-12-19T08:51:01.143Z,2.05
2022-12-19T08:53:29.645Z,2.90
2022-12-19T08:55:57.908Z,2.15
2022-12-19T08:58:25.975Z,2.88
2022-12-19T09:01:03.309Z,3.55
2022-12-19T09:03:53.745Z,2.37
2022-12-19T09:06:20.775Z,2.38
2022-12-19T09:08:48.855Z,2.53
2022-12-19T09:11:17.074Z,2.40
2022-12-19T09:13:46.066Z,1.90
2022-12-19T09:16:14.944Z,3.00
2022-12-19T09:18:48.186Z,3.17
2022-12-19T09:21:17.086Z,2.42
2022-12-19T09:23:45.547Z,3.67
2022-12-19T09:26:14.751Z,3.08
2022-12-19T09:28:42.585Z,2.90
2022-12-19T09:31:14.252Z,2.53
2022-12-19T09:33:43.859Z,2.55
2022-12-19T09:36:15.801Z,4.00
2022-12-19T09:38:43.725Z,3.47
2022-12-19T09:41:15.814Z,3.17
2022-12-19T09:43:48.602Z,2.77
2022-12-19T09:46:20.510Z,3.47
2022-12-19T09:48:54.287Z,3.38
2022-12-19T09:51:28.882Z,3.30
2022-12-19T09:54:20.540Z,4.37
2022-12-19T09:56:48.197Z,2.92
2022-12-19T09:59:47.931Z,3.17
2022-12-19T10:02:18.036Z,3.17
2022-12-19T10:04:49.268Z,3.35
2022-12-19T10:07:48.417Z,2.70
2022-12-19T10:12:33.066Z,3.97
2022-12-19T10:13:12.779Z,3.92
2022-12-19T10:15:43.963Z,3.70
2022-12-19T10:18:17.505Z,3.50
2022-12-19T10:21:05.684Z,3.20
2022-12-19T10:23:51.516Z,3.95
2022-12-19T10:26:26.927Z,3.53
2022-12-19T10:29:01.350Z,3.60
2022-12-19T10:31:35.069Z,3.13
2022-12-19T10:34:20.927Z,4.90
2022-12-19T10:39:43.708Z,3.55
2022-12-19T10:42:17.163Z,2.70
2022-12-19T10:44:44.948Z,3.33
2022-12-19T10:47:16.373Z,2.57
2022-12-19T10:49:44.228Z,2.25
2022-12-19T10:52:13.138Z,3.60
2022-12-19T10:54:44.182Z,4.27
2022-12-19T10:57:25.861Z,3.28
2022-12-19T10:59:57.297Z,3.13
2022-12-19T11:02:31.320Z,3.93
2022-12-19T11:04:59.194Z,3.75
2022-12-19T11:07:27.171Z,3.50
2022-12-19T11:10:19.526Z,3.97
2022-12-19T11:19:13.480Z,4.83
2022-12-19T11:21:16.726Z,3.92
2022-12-19T11:29:17.225Z,4.90
2022-12-19T11:29:26.637Z,5.07
2022-12-19T11:29:46.625Z,3.20
2022-12-19T11:30:40.970Z,3.67
2022-12-19T11:32:42.920Z,3.30
2022-12-19T11:35:20.993Z,3.78
2022-12-19T11:37:55.749Z,3.95
2022-12-19T11:40:26.209Z,4.87
2022-12-19T11:43:42.480Z,3.08
2022-12-19T11:45:56.522Z,3.40
2022-12-19T11:48:48.000Z,2.83
2022-12-19T11:51:22.220Z,3.75
2022-12-19T11:53:52.403Z,2.13
2022-12-19T11:56:21.390Z,4.13
2022-12-19T11:58:50.379Z,4.50
2022-12-19T12:01:30.108Z,4.57
2022-12-19T12:04:13.209Z,4.32
2022-12-19T12:07:23.381Z,3.10
2022-12-19T12:13:24.732Z,4.72
2022-12-19T12:23:04.787Z,2.22
2022-12-19T12:28:51.888Z,3.63
2022-12-19T12:31:02.829Z,3.50
2022-12-19T12:31:31.948Z,3.88
2022-12-19T12:31:41.052Z,3.70
2022-12-19T12:31:44.602Z,2.65
2022-12-19T12:31:58.824Z,2.92
2022-12-19T12:35:40.505Z,2.83
2022-12-19T12:39:33.566Z,2.40
2022-12-19T12:42:23.818Z,5.13
2022-12-19T12:44:51.699Z,3.53
2022-12-19T12:47:20.706Z,4.00
2022-12-19T12:49:53.949Z,2.90
2022-12-19T12:52:24.743Z,3.13
2022-12-19T12:54:52.592Z,3.92
2022-12-19T12:57:31.262Z,3.45
2022-12-19T13:00:20.368Z,3.65
2022-12-19T13:02:52.042Z,3.27
2022-12-19T13:05:25.179Z,2.60
2022-12-19T13:07:53.471Z,3.28
2022-12-19T13:10:21.271Z,2.43
2022-12-19T13:13:00.707Z,3.30
2022-12-19T13:15:28.620Z,3.63
2022-12-19T13:17:56.406Z,2.90
2022-12-19T13:20:30.393Z,3.72
2022-12-19T13:23:01.196Z,3.63
2022-12-19T13:25:47.854Z,3.35
2022-12-19T13:28:21.908Z,3.53
2022-12-19T13:31:20.811Z,3.47
2022-12-19T13:33:55.697Z,1.85
2022-12-19T13:39:47.904Z,3.20
2022-12-19T13:39:59.626Z,3.10
2022-12-19T13:42:41.168Z,3.15
2022-12-19T13:45:10.835Z,4.27
2022-12-19T13:47:39.343Z,2.28
2022-12-19T13:50:08.082Z,2.85
2022-12-19T13:52:37.481Z,3.25
2022-12-19T13:55:06.788Z,3.13
2022-12-19T13:57:34.505Z,2.67
2022-12-19T14:00:04.283Z,3.20
2022-12-19T14:02:44.370Z,3.57
2022-12-19T14:05:30.635Z,3.08
2022-12-19T14:08:11.046Z,2.47
2022-12-19T14:11:40.091Z,2.20
2022-12-19T14:14:03.253Z,2.70
2022-12-19T14:16:43.238Z,2.45
2022-12-19T14:19:23.034Z,2.05
2022-12-19T14:22:10.657Z,2.30
2022-12-19T14:24:38.813Z,2.25
2022-12-19T14:28:18.710Z,2.22
2022-12-19T14:30:27.920Z,2.47
2022-12-19T14:33:40.356Z,2.83
2022-12-19T14:36:11.418Z,2.03
2022-12-19T14:39:20.543Z,3.27
2022-12-19T14:41:38.122Z,2.95
2022-12-19T14:51:03.265Z,3.40
2022-12-19T14:54:13.169Z,4.35
2022-12-19T14:54:13.816Z,2.97
2022-12-19T14:54:50.557Z,2.92
2022-12-19T14:56:08.523Z,2.83
2022-12-19T14:58:56.080Z,3.80
2022-12-19T15:01:23.386Z,4.22
2022-12-19T15:04:48.951Z,3.10
2022-12-19T15:07:09.924Z,3.93
2022-12-19T15:11:04.348Z,3.00
2022-12-19T15:14:47.390Z,4.10
2022-12-19T15:15:56.501Z,3.05
2022-12-19T15:18:33.183Z,2.30
2022-12-19T15:21:01.724Z,2.10
2022-12-19T15:23:29.760Z,2.90
2022-12-19T15:26:07.032Z,2.90
2022-12-19T15:28:37.530Z,2.60
2022-12-19T15:31:14.470Z,2.78
2022-12-19T15:34:00.088Z,3.17
2022-12-19T15:36:30.864Z,2.92
2022-12-19T15:38:58.710Z,2.90
2022-12-19T15:41:26.383Z,2.33
2022-12-19T15:44:03.588Z,2.47
2022-12-19T15:46:32.351Z,3.00
2022-12-19T15:49:00.244Z,2.25
2022-12-19T15:51:28.090Z,1.87
2022-12-19T15:54:08.952Z,3.05
2022-12-19T15:56:46.824Z,1.92
2022-12-19T15:59:20.952Z,3.40
2022-12-19T16:01:48.779Z,3.33
2022-12-19T16:04:16.778Z,2.15
2022-12-19T16:06:45.574Z,2.08
2022-12-19T16:09:23.301Z,2.00
2022-12-19T16:11:51.494Z,2.10
2022-12-19T16:14:19.540Z,2.60
2022-12-19T16:16:48.667Z,2.23
2022-12-19T16:19:22.404Z,2.05
2022-12-19T16:21:50.254Z,2.15
2022-12-19T16:24:17.992Z,2.50
2022-12-19T16:26:45.823Z,2.92
2022-12-19T16:29:18.417Z,2.03
2022-12-19T16:31:46.268Z,1.98
2022-12-19T16:34:17.541Z,2.53
2022-12-19T16:36:45.412Z,2.80
2022-12-19T16:39:14.147Z,2.13
2022-12-19T16:41:42.568Z,2.90
2022-12-19T16:44:19.472Z,3.42
2022-12-19T16:46:50.925Z,3.15
2022-12-19T16:49:25.443Z,2.17
2022-12-19T16:51:53.245Z,2.05
2022-12-19T16:54:21.077Z,2.25
2022-12-19T16:56:49.504Z,1.98
2022-12-19T16:59:20.820Z,2.63
2022-12-19T17:01:48.902Z,3.40
2022-12-19T17:04:21.726Z,2.13
2022-12-19T17:06:50.036Z,3.27
2022-12-19T17:09:18.384Z,2.70
2022-12-19T17:11:46.814Z,3.05
2022-12-19T17:14:18.515Z,2.40
2022-12-19T17:16:46.324Z,3.70
2022-12-19T17:19:23.684Z,3.38
2022-12-19T17:21:51.541Z,2.30
2022-12-19T17:24:19.483Z,2.50
2022-12-19T17:26:47.393Z,2.53
2022-12-19T17:29:15.275Z,3.08
2022-12-19T17:31:43.180Z,2.23
2022-12-19T17:34:17.183Z,2.58
2022-12-19T17:36:45.173Z,2.78
2022-12-19T17:39:26.259Z,2.70
2022-12-19T17:41:55.373Z,3.30
2022-12-19T17:44:23.194Z,2.78
2022-12-19T17:46:51.436Z,2.85
2022-12-19T17:49:24.904Z,3.73
2022-12-19T17:51:52.738Z,3.05
2022-12-19T17:54:23.723Z,3.58
2022-12-19T17:56:51.533Z,2.40
2022-12-19T17:59:19.419Z,2.35
2022-12-19T18:01:51.224Z,2.75
2022-12-19T18:04:19.815Z,1.77
2022-12-19T18:06:47.921Z,3.47
2022-12-19T18:09:19.056Z,2.42
2022-12-19T18:11:47.204Z,3.15
2022-12-19T18:14:15.132Z,2.90
2022-12-19T18:16:43.128Z,2.47
2022-12-19T18:19:18.429Z,2.08
2022-12-19T18:21:47.678Z,2.53
2022-12-19T18:24:16.708Z,3.30
2022-12-19T18:26:45.062Z,3.47
2022-12-19T18:29:12.974Z,2.20
2022-12-19T18:31:49.804Z,2.38
2022-12-19T18:34:27.925Z,3.05
2022-12-19T18:36:55.842Z,3.03
2022-12-19T18:39:27.210Z,1.93
2022-12-19T18:41:55.092Z,3.00
2022-12-19T18:44:23.416Z,2.72
2022-12-19T18:46:52.005Z,2.80
2022-12-19T18:49:19.941Z,2.35
2022-12-19T18:51:48.864Z,2.28
2022-12-19T18:54:20.701Z,2.33
2022-12-19T18:56:48.523Z,2.50
2022-12-19T18:59:16.291Z,2.67
2022-12-19T19:01:44.993Z,1.63
2022-12-19T19:04:13.461Z,2.73
2022-12-19T19:06:50.055Z,2.70
2022-12-19T19:09:22.770Z,2.90
2022-12-19T19:11:50.583Z,2.10
2022-12-19T19:14:19.748Z,2.25
2022-12-19T19:16:47.528Z,2.88
2022-12-19T19:19:15.978Z,2.60
2022-12-19T19:21:43.706Z,2.25
2022-12-19T19:24:19.095Z,2.70
2022-12-19T19:26:50.112Z,2.63
2022-12-19T19:29:20.078Z,2.43
2022-12-19T19:31:48.319Z,2.33
2022-12-19T19:34:23.379Z,1.98
2022-12-19T19:36:54.708Z,3.37
2022-12-19T19:39:23.110Z,1.83
2022-12-19T19:41:51.079Z,2.50
2022-12-19T19:44:18.826Z,2.87
2022-12-19T19:46:46.706Z,2.75
2022-12-19T19:49:14.717Z,2.40
2022-12-19T19:51:43.936Z,2.83
2022-12-19T19:54:11.778Z,2.43
2022-12-19T19:56:39.745Z,2.80
2022-12-19T19:59:07.915Z,2.70
2022-12-19T20:01:35.704Z,2.37
2022-12-19T20:04:04.534Z,2.90
2022-12-19T20:06:32.375Z,2.47
2022-12-19T20:09:00.191Z,2.63
2022-12-19T20:11:28.045Z,2.58
2022-12-19T20:13:55.858Z,2.35
2022-12-19T20:16:23.761Z,1.67
2022-12-19T20:18:52.284Z,2.77
2022-12-19T20:21:21.217Z,2.63
2022-12-19T20:23:48.973Z,2.70
2022-12-19T20:26:18.122Z,2.10
2022-12-19T20:28:49.404Z,1.73
2022-12-19T20:31:22.243Z,2.15
2022-12-19T20:33:51.167Z,2.27
2022-12-19T20:36:19.080Z,1.60
2022-12-19T20:38:47.172Z,2.42
2022-12-19T20:41:15.186Z,1.40
2022-12-19T20:43:43.043Z,2.50
2022-12-19T20:46:11.944Z,1.80
2022-12-19T20:48:39.899Z,2.50
2022-12-19T20:51:07.800Z,2.37
2022-12-19T20:53:35.781Z,2.42
2022-12-19T20:56:05.641Z,1.80
2022-12-19T20:58:35.504Z,2.27
2022-12-19T21:01:16.283Z,1.92
2022-12-19T21:03:48.763Z,2.08
2022-12-19T21:06:17.206Z,1.67
2022-12-19T21:08:45.093Z,1.80
2022-12-19T21:11:12.987Z,2.35
2022-12-19T21:13:41.676Z,2.38
2022-12-19T21:16:10.219Z,1.83
2022-12-19T21:18:38.351Z,1.98
2022-12-19T21:21:06.875Z,2.00
2022-12-19T21:23:34.711Z,1.90
2022-12-19T21:26:02.857Z,1.40
2022-12-19T21:28:31.370Z,1.50
2022-12-19T21:30:59.289Z,2.00
2022-12-19T21:33:27.285Z,1.90
2022-12-19T21:35:55.261Z,2.33
2022-12-19T21:38:23.269Z,1.85
2022-12-19T21:40:51.065Z,2.13
2022-12-19T21:43:18.788Z,2.10
2022-12-19T21:45:46.578Z,1.75
2022-12-19T21:48:14.453Z,1.07
2022-12-19T21:50:42.142Z,1.60
2022-12-19T21:53:10.939Z,2.30
2022-12-19T21:55:38.670Z,2.10
2022-12-19T21:58:06.548Z,1.87
2022-12-19T22:00:34.295Z,2.08
2022-12-19T22:03:13.788Z,1.70
2022-12-19T22:05:42.752Z,2.70
2022-12-19T22:08:10.609Z,1.88
2022-12-19T22:10:40.200Z,1.90
2022-12-19T22:13:07.858Z,2.20
2022-12-19T22:15:36.951Z,2.60
2022-12-19T22:18:04.682Z,1.67
2022-12-19T22:20:32.393Z,2.10
2022-12-19T22:23:00.007Z,2.20
2022-12-19T22:25:27.691Z,1.92
2022-12-19T22:27:56.547Z,1.77
2022-12-19T22:30:24.343Z,1.47
2022-12-19T22:32:52.033Z,1.40
2022-12-19T22:35:19.872Z,2.10
2022-12-19T22:37:47.677Z,2.27
2022-12-19T22:40:15.522Z,1.80
2022-12-19T22:42:43.291Z,1.75
2022-12-19T22:45:11.193Z,1.77
2022-12-19T22:47:41.498Z,1.60
2022-12-19T22:50:10.650Z,1.55
2022-12-19T22:52:41.207Z,2.08
2022-12-19T22:55:09.082Z,1.60
2022-12-19T22:57:36.855Z,1.70
2022-12-19T23:00:06.076Z,1.45
2022-12-19T23:02:33.941Z,1.20
2022-12-19T23:05:01.740Z,1.52
2022-12-19T23:07:29.553Z,1.60
2022-12-19T23:09:57.237Z,1.65
2022-12-19T23:12:24.889Z,1.67
2022-12-19T23:14:52.566Z,1.40
2022-12-19T23:17:20.236Z,1.90
2022-12-19T23:19:47.920Z,2.00
2022-12-19T23:22:15.578Z,2.35
2022-12-19T23:24:44.927Z,2.00
2022-12-19T23:27:12.607Z,1.90
2022-12-19T23:29:40.423Z,1.52
2022-12-19T23:32:08.236Z,1.83
2022-12-19T23:34:37.911Z,1.75
2022-12-19T23:37:13.082Z,2.13
2022-12-19T23:39:40.903Z,1.27
2022-12-19T23:42:08.921Z,2.00
2022-12-19T23:44:36.867Z,1.60
2022-12-19T23:47:04.635Z,1.52
2022-12-19T23:49:33.063Z,1.73
2022-12-19T23:52:00.869Z,1.90
2022-12-19T23:54:28.540Z,1.90
2022-12-19T23:56:56.326Z,1.48
2022-12-19T23:59:24.007Z,2.00
